Terminal Aerodrome Forecast
Issued by NWS

Home | Current Version | Previous Version | Text Only | Print | Product List | Glossary On
Versions: 1 2 3 4 5 6 7 8 9 10 11 12
000
FTUS45 KRIW 202300
TAFRKS
TAF
KRKS 202326Z 2100/2124 26010G17KT P6SM VCTS SCT060CB BKN090
     FM210200 23009KT P6SM VCSH SCT070 BKN110
     FM210600 21007KT P6SM SCT110 BKN200
     FM211900 24016G24KT P6SM VCTS SCT060CB BKN090=

USA.gov is the U.S. government's official web portal to all federal, state and local government web resources and services.